createdAt,value
2017-12-13T00:00:56.857Z,0
2017-12-13T00:01:57.376Z,0
2017-12-13T00:02:57.185Z,0
2017-12-13T00:03:57.405Z,0
2017-12-13T00:04:57.423Z,0
2017-12-13T00:05:57.424Z,0
2017-12-13T00:06:57.687Z,0
2017-12-13T00:07:57.246Z,0
2017-12-13T00:08:57.476Z,0
2017-12-13T00:09:57.474Z,0
2017-12-13T00:10:57.235Z,0
2017-12-13T00:11:57.002Z,0
2017-12-13T00:12:57.512Z,0
2017-12-13T00:13:57.283Z,0
2017-12-13T00:14:57.545Z,0
2017-12-13T00:15:57.556Z,0
2017-12-13T00:16:57.883Z,0
2017-12-13T00:17:58.630Z,0
2017-12-13T00:18:57.594Z,0
2017-12-13T00:19:57.096Z,0
2017-12-13T00:20:57.362Z,0
2017-12-13T00:21:57.623Z,0
2017-12-13T00:22:57.385Z,0
2017-12-13T00:23:57.648Z,0
2017-12-13T00:24:57.666Z,0
2017-12-13T00:25:57.672Z,0
2017-12-13T00:26:57.435Z,0
2017-12-13T00:27:57.700Z,0
2017-12-13T00:28:57.968Z,0
2017-12-13T00:29:57.725Z,0
2017-12-13T00:30:57.759Z,0
2017-12-13T00:31:57.746Z,0
2017-12-13T00:32:57.827Z,0
2017-12-13T00:33:57.521Z,0
2017-12-13T00:34:57.532Z,0
2017-12-13T00:35:57.809Z,0
2017-12-13T00:36:57.811Z,0
2017-12-13T00:37:57.895Z,0
2017-12-13T00:38:57.845Z,0
2017-12-13T00:39:57.847Z,0
2017-12-13T00:40:57.864Z,0
2017-12-13T00:41:58.133Z,0
2017-12-13T00:42:57.890Z,0
2017-12-13T00:43:58.163Z,0
2017-12-13T00:44:58.170Z,0
2017-12-13T00:45:58.176Z,0
2017-12-13T00:46:58.184Z,0
2017-12-13T00:47:57.996Z,0
2017-12-13T00:48:58.209Z,0
2017-12-13T00:49:57.967Z,0
2017-12-13T00:50:58.300Z,0
2017-12-13T00:51:58.251Z,0
2017-12-13T00:52:57.752Z,0
2017-12-13T00:53:57.774Z,0
2017-12-13T00:54:58.034Z,0
2017-12-13T00:55:58.046Z,0
2017-12-13T00:56:57.808Z,0
2017-12-13T00:57:58.072Z,0
2017-12-13T00:58:57.581Z,0
2017-12-13T00:59:57.846Z,0
2017-12-13T01:00:57.854Z,0
2017-12-13T01:01:57.611Z,0
2017-12-13T01:02:58.182Z,0
2017-12-13T01:03:58.197Z,0
2017-12-13T01:04:57.907Z,0
2017-12-13T01:05:57.919Z,0
2017-12-13T01:06:58.178Z,0
2017-12-13T01:07:58.196Z,0
2017-12-13T01:08:58.456Z,0
2017-12-13T01:09:58.226Z,0
2017-12-13T01:10:58.485Z,0
2017-12-13T01:11:58.245Z,0
2017-12-13T01:12:58.257Z,0
2017-12-13T01:13:58.272Z,0
2017-12-13T01:14:58.535Z,0
2017-12-13T01:15:58.549Z,0
2017-12-13T01:16:58.307Z,0
2017-12-13T01:17:58.628Z,0
2017-12-13T01:18:58.335Z,0
2017-12-13T01:19:57.846Z,0
2017-12-13T01:20:57.853Z,0
2017-12-13T01:21:57.868Z,0
2017-12-13T01:22:58.635Z,0
2017-12-13T01:23:58.641Z,0
2017-12-13T01:24:58.405Z,0
2017-12-13T01:25:58.164Z,0
2017-12-13T01:26:58.681Z,0
2017-12-13T01:27:58.205Z,0
2017-12-13T01:28:58.461Z,0
2017-12-13T01:29:58.460Z,0
2017-12-13T01:30:57.974Z,0
2017-12-13T01:31:58.490Z,0
2017-12-13T01:32:58.306Z,0
2017-12-13T01:33:58.018Z,0
2017-12-13T01:34:58.279Z,0
2017-12-13T01:35:58.035Z,0
2017-12-13T01:36:58.547Z,0
2017-12-13T01:37:58.824Z,0
2017-12-13T01:38:58.325Z,0
2017-12-13T01:39:58.841Z,0
2017-12-13T01:40:58.353Z,0
2017-12-13T01:41:58.860Z,0
2017-12-13T01:42:58.373Z,0
2017-12-13T01:43:58.644Z,0
2017-12-13T01:44:58.652Z,0
2017-12-13T01:45:58.669Z,0
2017-12-13T01:46:58.675Z,0
2017-12-13T01:47:59.006Z,0
2017-12-13T01:48:58.996Z,0
2017-12-13T01:49:58.714Z,0
2017-12-13T01:50:58.991Z,0
2017-12-13T01:51:58.745Z,0
2017-12-13T01:52:59.015Z,0
2017-12-13T01:53:58.763Z,0
2017-12-13T01:54:58.784Z,0
2017-12-13T01:55:59.040Z,0
2017-12-13T01:56:58.797Z,0
2017-12-13T01:57:58.811Z,0
2017-12-13T01:58:59.083Z,0
2017-12-13T01:59:59.099Z,0
2017-12-13T02:00:59.107Z,0
2017-12-13T02:01:58.357Z,0
2017-12-13T02:02:58.669Z,0
2017-12-13T02:03:59.140Z,0
2017-12-13T02:04:58.898Z,0
2017-12-13T02:05:58.910Z,0
2017-12-13T02:06:58.668Z,0
2017-12-13T02:07:58.957Z,0
2017-12-13T02:08:58.442Z,0
2017-12-13T02:09:59.221Z,0
2017-12-13T02:10:58.983Z,0
2017-12-13T02:11:58.991Z,0
2017-12-13T02:12:58.997Z,0
2017-12-13T02:13:58.762Z,0
2017-12-13T02:14:58.776Z,0
2017-12-13T02:15:58.530Z,0
2017-12-13T02:16:58.800Z,0
2017-12-13T02:17:58.809Z,0
2017-12-13T02:18:58.819Z,0
2017-12-13T02:19:59.392Z,0
2017-12-13T02:20:59.352Z,0
2017-12-13T02:21:58.856Z,0
2017-12-13T02:22:59.121Z,0
2017-12-13T02:23:58.883Z,0
2017-12-13T02:24:59.141Z,0
2017-12-13T02:25:58.656Z,0
2017-12-13T02:26:58.662Z,0
2017-12-13T02:27:59.184Z,0
2017-12-13T02:28:59.188Z,0
2017-12-13T02:29:59.457Z,0
2017-12-13T02:30:58.715Z,0
2017-12-13T02:31:59.483Z,0
2017-12-13T02:32:58.988Z,0
2017-12-13T02:33:59.511Z,0
2017-12-13T02:34:59.569Z,0
2017-12-13T02:35:59.542Z,0
2017-12-13T02:36:59.538Z,0
2017-12-13T02:37:59.310Z,0
2017-12-13T02:38:59.562Z,0
2017-12-13T02:39:59.072Z,0
2017-12-13T02:40:59.092Z,0
2017-12-13T02:41:59.363Z,0
2017-12-13T02:42:59.382Z,0
2017-12-13T02:43:59.638Z,0
2017-12-13T02:44:59.665Z,0
2017-12-13T02:45:59.667Z,0
2017-12-13T02:46:59.664Z,0
2017-12-13T02:47:59.430Z,0
2017-12-13T02:48:59.450Z,0
2017-12-13T02:49:59.500Z,0
2017-12-13T02:50:59.214Z,0
2017-12-13T02:51:59.736Z,0
2017-12-13T02:52:59.237Z,0
2017-12-13T02:53:58.998Z,0
2017-12-13T02:54:59.870Z,0
2017-12-13T02:55:59.523Z,0
2017-12-13T02:56:59.789Z,0
2017-12-13T02:57:59.812Z,0
2017-12-13T02:58:59.815Z,0
2017-12-13T02:59:59.322Z,0
2017-12-13T03:00:59.585Z,0
2017-12-13T03:01:59.600Z,0
2017-12-13T03:02:59.106Z,0
2017-12-13T03:03:59.637Z,0
2017-12-13T03:04:59.944Z,0
2017-12-13T03:05:59.897Z,0
2017-12-13T03:06:59.661Z,0
2017-12-13T03:07:59.921Z,0
2017-12-13T03:08:59.446Z,0
2017-12-13T03:09:59.693Z,0
2017-12-13T03:10:59.958Z,0
2017-12-13T03:11:59.970Z,0
2017-12-13T03:12:59.983Z,0
2017-12-13T03:13:59.760Z,0
2017-12-13T03:14:59.502Z,0
2017-12-13T03:16:00.012Z,0
2017-12-13T03:16:59.526Z,0
2017-12-13T03:17:59.800Z,0
2017-12-13T03:19:00.057Z,0
2017-12-13T03:19:59.864Z,0
2017-12-13T03:21:00.088Z,0
2017-12-13T03:21:59.842Z,0
2017-12-13T03:23:00.107Z,0
2017-12-13T03:23:59.377Z,0
2017-12-13T03:24:59.877Z,0
2017-12-13T03:25:59.888Z,0
2017-12-13T03:26:59.907Z,0
2017-12-13T03:27:59.664Z,0
2017-12-13T03:29:00.179Z,0
2017-12-13T03:29:59.427Z,0
2017-12-13T03:31:00.215Z,0
2017-12-13T03:31:59.972Z,0
2017-12-13T03:32:59.977Z,0
2017-12-13T03:33:59.732Z,0
2017-12-13T03:35:00.309Z,0
2017-12-13T03:35:59.507Z,0
2017-12-13T03:37:00.021Z,0
2017-12-13T03:38:00.036Z,0
2017-12-13T03:39:00.051Z,0
2017-12-13T03:40:00.073Z,0
2017-12-13T03:41:00.072Z,0
2017-12-13T03:42:00.092Z,0
2017-12-13T03:43:00.346Z,0
2017-12-13T03:43:59.852Z,0
2017-12-13T03:44:59.862Z,0
2017-12-13T03:46:00.135Z,0
2017-12-13T03:46:59.888Z,0
2017-12-13T03:48:00.463Z,0
2017-12-13T03:49:00.175Z,0
2017-12-13T03:50:00.499Z,0
2017-12-13T03:51:00.459Z,0
2017-12-13T03:51:59.702Z,0
2017-12-13T03:52:59.972Z,0
2017-12-13T03:53:59.717Z,0
2017-12-13T03:55:00.261Z,0
2017-12-13T03:56:00.501Z,0
2017-12-13T03:57:00.017Z,0
2017-12-13T03:58:00.018Z,0
2017-12-13T03:59:00.542Z,0
2017-12-13T04:00:00.296Z,0
2017-12-13T04:00:59.825Z,0
2017-12-13T04:02:00.573Z,0
2017-12-13T04:03:00.329Z,0
2017-12-13T04:04:00.599Z,0
2017-12-13T04:04:59.901Z,0
2017-12-13T04:06:00.638Z,0
2017-12-13T04:07:00.385Z,0
2017-12-13T04:08:00.393Z,0
2017-12-13T04:09:00.400Z,0
2017-12-13T04:10:00.421Z,0
2017-12-13T04:11:00.179Z,0
2017-12-13T04:12:00.693Z,0
2017-12-13T04:13:00.457Z,0
2017-12-13T04:14:00.717Z,0
2017-12-13T04:15:00.731Z,0
2017-12-13T04:16:00.753Z,0
2017-12-13T04:16:59.945Z,0
2017-12-13T04:18:00.007Z,0
2017-12-13T04:19:00.780Z,0
2017-12-13T04:20:00.579Z,0
2017-12-13T04:21:00.808Z,0
2017-12-13T04:22:00.817Z,0
2017-12-13T04:23:00.831Z,0
2017-12-13T04:24:00.595Z,0
2017-12-13T04:25:00.849Z,0
2017-12-13T04:26:00.606Z,0
2017-12-13T04:27:00.624Z,0
2017-12-13T04:28:00.885Z,0
2017-12-13T04:29:00.640Z,0
2017-12-13T04:30:00.905Z,0
2017-12-13T04:31:00.665Z,0
2017-12-13T04:32:00.683Z,0
2017-12-13T04:33:00.712Z,0
2017-12-13T04:34:00.707Z,0
2017-12-13T04:35:00.767Z,0
2017-12-13T04:36:00.978Z,0
2017-12-13T04:37:00.756Z,0
2017-12-13T04:38:01.005Z,0
2017-12-13T04:39:00.520Z,0
2017-12-13T04:40:00.771Z,0
2017-12-13T04:41:00.538Z,0
2017-12-13T04:42:00.796Z,0
2017-12-13T04:43:01.070Z,0
2017-12-13T04:44:01.072Z,0
2017-12-13T04:45:00.834Z,0
2017-12-13T04:46:00.594Z,0
2017-12-13T04:47:01.102Z,0
2017-12-13T04:48:01.169Z,0
2017-12-13T04:49:00.881Z,0
2017-12-13T04:50:01.192Z,0
2017-12-13T04:51:00.651Z,0
2017-12-13T04:52:00.661Z,0
2017-12-13T04:53:01.184Z,0
2017-12-13T04:54:01.198Z,0
2017-12-13T04:55:00.706Z,0
2017-12-13T04:56:00.709Z,0
2017-12-13T04:57:00.972Z,0
2017-12-13T04:58:00.975Z,0
2017-12-13T04:59:01.012Z,0
2017-12-13T05:00:00.758Z,0
2017-12-13T05:01:01.276Z,0
2017-12-13T05:02:00.783Z,0
2017-12-13T05:03:01.297Z,0
2017-12-13T05:04:01.305Z,0
2017-12-13T05:05:01.120Z,0
2017-12-13T05:06:01.080Z,0
2017-12-13T05:07:01.345Z,0
2017-12-13T05:08:01.097Z,0
2017-12-13T05:09:01.363Z,0
2017-12-13T05:10:00.871Z,0
2017-12-13T05:11:00.885Z,0
2017-12-13T05:12:01.147Z,0
2017-12-13T05:13:01.157Z,0
2017-12-13T05:14:01.173Z,0
2017-12-13T05:15:01.187Z,0
2017-12-13T05:16:01.475Z,0
2017-12-13T05:17:01.209Z,0
2017-12-13T05:18:01.219Z,0
2017-12-13T05:19:01.487Z,0
2017-12-13T05:20:00.482Z,0
2017-12-13T05:21:01.019Z,0
2017-12-13T05:22:01.524Z,0
2017-12-13T05:23:01.272Z,0
2017-12-13T05:24:01.280Z,0
2017-12-13T05:25:01.300Z,0
2017-12-13T05:26:01.568Z,0
2017-12-13T05:27:01.324Z,0
2017-12-13T05:28:01.593Z,0
2017-12-13T05:29:01.349Z,0
2017-12-13T05:30:00.861Z,0
2017-12-13T05:31:01.392Z,0
2017-12-13T05:32:00.877Z,0
2017-12-13T05:33:01.392Z,0
2017-12-13T05:34:01.458Z,0
2017-12-13T05:35:01.412Z,0
2017-12-13T05:36:01.448Z,0
2017-12-13T05:37:01.694Z,0
2017-12-13T05:38:01.763Z,0
2017-12-13T05:39:01.707Z,0
2017-12-13T05:40:01.211Z,0
2017-12-13T05:41:01.221Z,0
2017-12-13T05:42:01.233Z,0
2017-12-13T05:43:01.786Z,0
2017-12-13T05:44:01.522Z,0
2017-12-13T05:45:01.282Z,0
2017-12-13T05:46:01.800Z,0
2017-12-13T05:47:01.812Z,0
2017-12-13T05:48:01.319Z,0
2017-12-13T05:49:01.332Z,0
2017-12-13T05:50:01.600Z,0
2017-12-13T05:51:01.354Z,0
2017-12-13T05:52:01.367Z,0
2017-12-13T05:53:01.676Z,0
2017-12-13T05:54:01.139Z,0
2017-12-13T05:55:01.399Z,0
2017-12-13T05:56:01.410Z,0
2017-12-13T05:57:01.674Z,0
2017-12-13T05:58:01.951Z,0
2017-12-13T05:59:00.941Z,0
2017-12-13T06:00:01.712Z,0
2017-12-13T06:01:01.974Z,0
2017-12-13T06:02:01.479Z,0
2017-12-13T06:03:01.771Z,0
2017-12-13T06:04:01.498Z,0
2017-12-13T06:05:01.527Z,0
2017-12-13T06:06:01.530Z,0
2017-12-13T06:07:02.051Z,0
2017-12-13T06:08:01.609Z,0
2017-12-13T06:09:01.569Z,0
2017-12-13T06:10:01.833Z,0
2017-12-13T06:11:01.593Z,0
2017-12-13T06:12:01.850Z,0
2017-12-13T06:13:01.608Z,0
2017-12-13T06:14:01.640Z,0
2017-12-13T06:15:02.132Z,0
2017-12-13T06:16:02.154Z,0
2017-12-13T06:17:01.916Z,0
2017-12-13T06:18:02.176Z,0
2017-12-13T06:19:02.203Z,0
2017-12-13T06:20:01.696Z,0
2017-12-13T06:21:02.213Z,0
2017-12-13T06:22:01.964Z,0
2017-12-13T06:23:02.027Z,0
2017-12-13T06:24:02.240Z,0
2017-12-13T06:25:01.496Z,0
2017-12-13T06:26:02.058Z,0
2017-12-13T06:27:02.028Z,0
2017-12-13T06:28:02.049Z,0
2017-12-13T06:29:02.051Z,0
2017-12-13T06:30:02.071Z,0
2017-12-13T06:31:02.071Z,0
2017-12-13T06:32:01.835Z,0
2017-12-13T06:33:02.096Z,0
2017-12-13T06:34:02.366Z,0
2017-12-13T06:35:02.381Z,0
2017-12-13T06:36:02.138Z,0
2017-12-13T06:37:01.889Z,0
2017-12-13T06:38:01.964Z,0
2017-12-13T06:39:02.426Z,0
2017-12-13T06:40:02.176Z,0
2017-12-13T06:41:02.206Z,0
2017-12-13T06:42:01.953Z,0
2017-12-13T06:43:01.973Z,0
2017-12-13T06:44:02.228Z,0
2017-12-13T06:45:01.984Z,0
2017-12-13T06:46:02.000Z,0
2017-12-13T06:47:02.029Z,0
2017-12-13T06:48:02.531Z,0
2017-12-13T06:49:01.783Z,0
2017-12-13T06:50:02.301Z,5
2017-12-13T06:51:02.053Z,5
2017-12-13T06:52:02.320Z,5
2017-12-13T06:53:02.131Z,5
2017-12-13T06:54:01.840Z,5
2017-12-13T06:55:02.103Z,5
2017-12-13T06:56:02.746Z,5
2017-12-13T06:57:02.381Z,10
2017-12-13T06:58:02.650Z,10
2017-12-13T06:59:02.149Z,10
2017-12-13T07:00:02.675Z,10
2017-12-13T07:01:02.679Z,10
2017-12-13T07:02:02.683Z,15
2017-12-13T07:03:02.203Z,15
2017-12-13T07:04:02.467Z,15
2017-12-13T07:05:02.228Z,15
2017-12-13T07:06:02.735Z,20
2017-12-13T07:07:02.519Z,20
2017-12-13T07:08:02.561Z,20
2017-12-13T07:09:02.892Z,20
2017-12-13T07:10:02.531Z,25
2017-12-13T07:11:02.551Z,25
2017-12-13T07:12:02.558Z,25
2017-12-13T07:13:02.825Z,30
2017-12-13T07:14:02.332Z,30
2017-12-13T07:15:02.367Z,30
2017-12-13T07:16:02.606Z,35
2017-12-13T07:17:02.619Z,35
2017-12-13T07:18:02.624Z,40
2017-12-13T07:19:02.138Z,40
2017-12-13T07:20:02.655Z,40
2017-12-13T07:21:02.415Z,45
2017-12-13T07:22:02.933Z,45
2017-12-13T07:23:02.740Z,50
2017-12-13T07:24:02.965Z,50
2017-12-13T07:25:02.716Z,50
2017-12-13T07:26:02.462Z,55
2017-12-13T07:27:02.989Z,55
2017-12-13T07:28:02.490Z,55
2017-12-13T07:29:02.762Z,60
2017-12-13T07:30:02.766Z,60
2017-12-13T07:31:02.784Z,60
2017-12-13T07:32:02.792Z,60
2017-12-13T07:33:02.576Z,65
2017-12-13T07:34:02.827Z,65
2017-12-13T07:35:03.085Z,70
2017-12-13T07:36:02.594Z,70
2017-12-13T07:37:02.605Z,75
2017-12-13T07:38:02.415Z,75
2017-12-13T07:39:02.886Z,80
2017-12-13T07:40:02.641Z,80
2017-12-13T07:41:02.400Z,90
2017-12-13T07:42:02.922Z,85
2017-12-13T07:43:02.934Z,90
2017-12-13T07:44:02.721Z,90
2017-12-13T07:45:02.704Z,95
2017-12-13T07:46:03.217Z,95
2017-12-13T07:47:02.723Z,95
2017-12-13T07:48:02.995Z,95
2017-12-13T07:49:03.264Z,100
2017-12-13T07:50:03.268Z,100
2017-12-13T07:51:03.040Z,100
2017-12-13T07:52:02.792Z,100
2017-12-13T07:53:03.101Z,100
2017-12-13T07:54:02.812Z,100
2017-12-13T07:55:02.834Z,100
2017-12-13T07:56:02.583Z,105
2017-12-13T07:57:03.358Z,105
2017-12-13T07:58:03.368Z,105
2017-12-13T07:59:02.642Z,105
2017-12-13T08:00:03.147Z,105
2017-12-13T08:01:03.161Z,100
2017-12-13T08:02:02.659Z,100
2017-12-13T08:03:03.188Z,95
2017-12-13T08:04:03.204Z,95
2017-12-13T08:05:03.101Z,90
2017-12-13T08:06:03.473Z,95
2017-12-13T08:07:03.485Z,95
2017-12-13T08:08:03.556Z,95
2017-12-13T08:09:02.754Z,100
2017-12-13T08:10:03.492Z,100
2017-12-13T08:11:03.256Z,100
2017-12-13T08:12:03.259Z,100
2017-12-13T08:13:03.017Z,100
2017-12-13T08:14:03.537Z,100
2017-12-13T08:15:03.304Z,100
2017-12-13T08:16:03.059Z,105
2017-12-13T08:17:03.331Z,105
2017-12-13T08:18:03.629Z,105
2017-12-13T08:19:03.649Z,100
2017-12-13T08:20:03.399Z,100
2017-12-13T08:21:03.663Z,95
2017-12-13T08:22:03.174Z,90
2017-12-13T08:23:03.901Z,95
2017-12-13T08:24:03.451Z,100
2017-12-13T08:25:03.722Z,105
2017-12-13T08:26:03.477Z,100
2017-12-13T08:27:03.235Z,95
2017-12-13T08:28:03.257Z,90
2017-12-13T08:29:03.262Z,95
2017-12-13T08:30:03.530Z,105
2017-12-13T08:31:03.289Z,95
2017-12-13T08:32:03.309Z,95
2017-12-13T08:33:03.837Z,95
2017-12-13T08:34:03.077Z,90
2017-12-13T08:35:03.092Z,85
2017-12-13T08:36:03.864Z,85
2017-12-13T08:37:03.618Z,85
2017-12-13T08:38:03.683Z,85
2017-12-13T08:39:03.652Z,85
2017-12-13T08:40:03.667Z,85
2017-12-13T08:41:03.426Z,90
2017-12-13T08:42:03.691Z,100
2017-12-13T08:43:03.454Z,100
2017-12-13T08:44:03.975Z,100
2017-12-13T08:45:03.728Z,105
2017-12-13T08:46:03.999Z,105
2017-12-13T08:47:03.759Z,110
2017-12-13T08:48:03.844Z,105
2017-12-13T08:49:04.061Z,105
2017-12-13T08:50:04.046Z,110
2017-12-13T08:51:03.297Z,125
2017-12-13T08:52:03.831Z,145
2017-12-13T08:53:04.086Z,145
2017-12-13T08:54:03.594Z,155
2017-12-13T08:55:03.858Z,155
2017-12-13T08:56:04.128Z,155
2017-12-13T08:57:03.635Z,145
2017-12-13T08:58:03.903Z,110
2017-12-13T08:59:03.930Z,105
2017-12-13T09:00:03.927Z,110
2017-12-13T09:01:03.685Z,120
2017-12-13T09:02:04.033Z,145
2017-12-13T09:03:04.252Z,165
2017-12-13T09:04:03.724Z,165
2017-12-13T09:05:04.250Z,165
2017-12-13T09:06:03.507Z,170
2017-12-13T09:07:04.025Z,170
2017-12-13T09:08:04.084Z,170
2017-12-13T09:09:03.792Z,170
2017-12-13T09:10:03.819Z,170
2017-12-13T09:11:03.314Z,170
2017-12-13T09:12:04.087Z,170
2017-12-13T09:13:03.847Z,180
2017-12-13T09:14:04.113Z,175
2017-12-13T09:15:04.420Z,175
2017-12-13T09:16:04.138Z,180
2017-12-13T09:17:04.458Z,180
2017-12-13T09:18:03.931Z,175
2017-12-13T09:19:04.429Z,175
2017-12-13T09:20:03.945Z,175
2017-12-13T09:21:03.958Z,180
2017-12-13T09:22:04.219Z,180
2017-12-13T09:23:04.542Z,185
2017-12-13T09:24:04.512Z,180
2017-12-13T09:25:04.275Z,180
2017-12-13T09:26:04.284Z,180
2017-12-13T09:27:04.036Z,180
2017-12-13T09:28:03.800Z,180
2017-12-13T09:29:04.316Z,185
2017-12-13T09:30:04.589Z,185
2017-12-13T09:31:04.601Z,185
2017-12-13T09:32:04.109Z,185
2017-12-13T09:33:04.379Z,185
2017-12-13T09:34:04.393Z,185
2017-12-13T09:35:04.652Z,185
2017-12-13T09:36:04.669Z,185
2017-12-13T09:37:04.685Z,190
2017-12-13T09:38:04.752Z,190
2017-12-13T09:39:04.720Z,190
2017-12-13T09:40:04.483Z,190
2017-12-13T09:41:04.495Z,190
2017-12-13T09:42:04.834Z,190
2017-12-13T09:43:04.295Z,190
2017-12-13T09:44:04.536Z,190
2017-12-13T09:45:04.796Z,190
2017-12-13T09:46:04.576Z,195
2017-12-13T09:47:04.579Z,195
2017-12-13T09:48:04.589Z,240
2017-12-13T09:49:04.367Z,730
2017-12-13T09:50:04.116Z,1165
2017-12-13T09:51:04.638Z,1235
2017-12-13T09:52:04.662Z,1245
2017-12-13T09:53:04.716Z,1230
2017-12-13T09:54:04.687Z,1265
2017-12-13T09:55:04.700Z,1280
2017-12-13T09:56:04.727Z,1260
2017-12-13T09:57:04.484Z,1280
2017-12-13T09:58:04.855Z,1335
2017-12-13T09:59:04.008Z,1305
2017-12-13T10:00:04.531Z,1285
2017-12-13T10:01:05.066Z,1335
2017-12-13T10:02:04.836Z,1340
2017-12-13T10:03:05.092Z,1305
2017-12-13T10:04:04.603Z,1270
2017-12-13T10:05:04.875Z,1325
2017-12-13T10:06:04.644Z,1340
2017-12-13T10:07:05.174Z,1325
2017-12-13T10:08:05.236Z,1315
2017-12-13T10:09:04.704Z,1260
2017-12-13T10:10:05.229Z,1255
2017-12-13T10:11:05.029Z,1335
2017-12-13T10:12:05.023Z,1385
2017-12-13T10:13:05.046Z,1425
2017-12-13T10:14:05.067Z,1415
2017-12-13T10:15:04.842Z,1430
2017-12-13T10:16:04.880Z,1420
2017-12-13T10:17:05.392Z,1440
2017-12-13T10:18:04.904Z,1445
2017-12-13T10:19:04.927Z,1520
2017-12-13T10:20:04.947Z,1570
2017-12-13T10:21:05.224Z,1545
2017-12-13T10:22:05.503Z,1590
2017-12-13T10:23:05.398Z,1645
2017-12-13T10:24:05.042Z,1570
2017-12-13T10:25:05.342Z,1610
2017-12-13T10:26:05.352Z,1625
2017-12-13T10:27:05.647Z,1545
2017-12-13T10:28:05.398Z,1535
2017-12-13T10:29:05.248Z,1685
2017-12-13T10:30:05.452Z,1655
2017-12-13T10:31:05.729Z,1580
2017-12-13T10:32:05.758Z,1625
2017-12-13T10:33:05.790Z,1580
2017-12-13T10:34:05.547Z,1530
2017-12-13T10:35:05.326Z,1610
2017-12-13T10:36:05.849Z,1760
2017-12-13T10:37:05.886Z,1650
2017-12-13T10:38:05.447Z,1650
2017-12-13T10:39:05.745Z,1815
2017-12-13T10:40:05.710Z,1665
2017-12-13T10:41:05.228Z,1800
2017-12-13T10:42:05.510Z,1930
2017-12-13T10:43:05.536Z,2175
2017-12-13T10:44:05.868Z,1875
2017-12-13T10:45:05.581Z,1775
2017-12-13T10:46:06.126Z,1930
2017-12-13T10:47:05.388Z,1655
2017-12-13T10:48:06.198Z,1435
2017-12-13T10:49:05.442Z,1160
2017-12-13T10:50:05.972Z,1030
2017-12-13T10:51:06.255Z,1165
2017-12-13T10:52:06.273Z,1215
2017-12-13T10:53:06.110Z,1015
2017-12-13T10:54:05.572Z,880
2017-12-13T10:55:06.156Z,870
2017-12-13T10:56:06.142Z,895
2017-12-13T10:57:05.906Z,940
2017-12-13T10:58:06.189Z,1040
2017-12-13T10:59:05.986Z,1115
2017-12-13T11:00:06.001Z,1125
2017-12-13T11:01:05.773Z,1095
2017-12-13T11:02:06.048Z,1105
2017-12-13T11:03:06.335Z,1120
2017-12-13T11:04:06.358Z,1185
2017-12-13T11:05:06.402Z,1580
2017-12-13T11:06:06.415Z,1810
2017-12-13T11:07:06.694Z,1765
2017-12-13T11:08:06.471Z,1790
2017-12-13T11:09:06.761Z,1740
2017-12-13T11:10:06.552Z,1755
2017-12-13T11:11:06.614Z,1800
2017-12-13T11:12:06.855Z,1860
2017-12-13T11:13:06.110Z,1830
2017-12-13T11:14:06.650Z,1810
2017-12-13T11:15:06.674Z,1860
2017-12-13T11:16:06.438Z,1700
2017-12-13T11:17:06.986Z,1595
2017-12-13T11:18:07.009Z,1750
2017-12-13T11:19:07.170Z,1930
2017-12-13T11:20:06.555Z,1945
2017-12-13T11:21:07.095Z,1720
2017-12-13T11:22:07.125Z,1440
2017-12-13T11:23:07.181Z,1365
2017-12-13T11:24:06.678Z,1385
2017-12-13T11:25:06.964Z,1365
2017-12-13T11:26:06.996Z,1365
2017-12-13T11:27:07.074Z,1305
2017-12-13T11:28:07.306Z,1280
2017-12-13T11:29:07.331Z,1325
2017-12-13T11:30:07.369Z,1550
2017-12-13T11:31:06.889Z,1715
2017-12-13T11:32:06.670Z,1710
2017-12-13T11:33:06.948Z,1585
2017-12-13T11:34:07.483Z,1640
2017-12-13T11:35:07.507Z,1735
2017-12-13T11:36:07.286Z,1780
2017-12-13T11:37:07.325Z,1925
2017-12-13T11:38:07.351Z,1970
2017-12-13T11:39:07.182Z,1950
2017-12-13T11:40:07.673Z,2030
2017-12-13T11:41:07.695Z,2070
2017-12-13T11:42:07.529Z,2045
2017-12-13T11:43:07.252Z,2055
2017-12-13T11:44:07.537Z,2035
2017-12-13T11:45:07.555Z,2125
2017-12-13T11:46:08.207Z,2170
2017-12-13T11:47:07.618Z,2150
2017-12-13T11:48:07.644Z,2095
2017-12-13T11:49:07.987Z,2025
2017-12-13T11:50:07.702Z,2170
2017-12-13T11:51:07.992Z,2180
2017-12-13T11:52:08.151Z,2010
2017-12-13T11:53:07.795Z,2245
2017-12-13T11:54:07.571Z,2250
2017-12-13T11:55:07.350Z,2215
2017-12-13T11:56:08.148Z,2375
2017-12-13T11:57:07.679Z,2100
2017-12-13T11:58:07.960Z,2100
2017-12-13T11:59:07.728Z,2350
2017-12-13T12:00:08.010Z,2205
2017-12-13T12:01:08.084Z,2130
2017-12-13T12:02:08.318Z,2325
2017-12-13T12:03:08.402Z,2420
2017-12-13T12:04:07.885Z,2400
2017-12-13T12:05:08.417Z,2225
2017-12-13T12:06:08.445Z,2230
2017-12-13T12:07:07.971Z,2390
2017-12-13T12:08:08.506Z,2380
2017-12-13T12:09:08.288Z,2310
2017-12-13T12:10:08.087Z,2390
2017-12-13T12:11:08.610Z,2405
2017-12-13T12:12:07.870Z,2260
2017-12-13T12:13:08.686Z,2300
2017-12-13T12:14:08.438Z,2400
2017-12-13T12:15:08.471Z,2240
2017-12-13T12:16:08.558Z,2160
2017-12-13T12:17:08.801Z,2345
2017-12-13T12:18:08.813Z,2465
2017-12-13T12:19:08.341Z,2455
2017-12-13T12:20:08.376Z,2375
2017-12-13T12:21:08.404Z,2330
2017-12-13T12:22:08.201Z,2400
2017-12-13T12:23:08.714Z,2360
2017-12-13T12:24:09.002Z,2270
2017-12-13T12:25:08.541Z,2365
2017-12-13T12:26:08.809Z,2350
2017-12-13T12:27:08.697Z,2365
2017-12-13T12:28:08.920Z,2310
2017-12-13T12:29:08.901Z,2205
2017-12-13T12:30:08.677Z,2260
2017-12-13T12:31:09.404Z,2275
2017-12-13T12:32:09.000Z,2375
2017-12-13T12:33:09.034Z,2475
2017-12-13T12:34:09.061Z,2405
2017-12-13T12:35:08.833Z,2420
2017-12-13T12:36:08.865Z,2460
2017-12-13T12:37:08.895Z,2450
2017-12-13T12:38:09.434Z,2335
2017-12-13T12:39:09.469Z,2305
2017-12-13T12:40:09.241Z,2420
2017-12-13T12:41:09.347Z,2415
2017-12-13T12:42:09.592Z,2330
2017-12-13T12:43:09.086Z,2165
2017-12-13T12:44:09.139Z,2105
2017-12-13T12:45:09.159Z,2060
2017-12-13T12:46:09.475Z,2030
2017-12-13T12:47:09.723Z,2190
2017-12-13T12:48:09.744Z,2210
2017-12-13T12:49:09.397Z,2280
2017-12-13T12:50:09.301Z,2295
2017-12-13T12:51:09.084Z,2205
2017-12-13T12:52:09.623Z,2250
2017-12-13T12:53:09.910Z,2340
2017-12-13T12:54:09.937Z,2355
2017-12-13T12:55:09.410Z,2250
2017-12-13T12:56:09.999Z,2290
2017-12-13T12:57:10.027Z,2305
2017-12-13T12:58:09.825Z,2145
2017-12-13T12:59:09.328Z,2150
2017-12-13T13:00:09.612Z,2245
2017-12-13T13:01:09.697Z,1990
2017-12-13T13:02:09.676Z,2040
2017-12-13T13:03:09.961Z,2000
2017-12-13T13:04:09.989Z,2005
2017-12-13T13:05:10.259Z,2300
2017-12-13T13:06:10.048Z,2165
2017-12-13T13:07:09.569Z,1995
2017-12-13T13:08:10.102Z,1585
2017-12-13T13:09:10.383Z,1100
2017-12-13T13:10:09.657Z,630
2017-12-13T13:11:10.207Z,245
2017-12-13T13:12:09.743Z,180
2017-12-13T13:13:10.296Z,165
2017-12-13T13:14:10.334Z,160
2017-12-13T13:15:10.097Z,160
2017-12-13T13:16:10.615Z,155
2017-12-13T13:17:10.634Z,155
2017-12-13T13:18:10.695Z,155
2017-12-13T13:19:10.726Z,155
2017-12-13T13:20:10.711Z,150
2017-12-13T13:21:10.508Z,150
2017-12-13T13:22:10.548Z,150
2017-12-13T13:23:10.552Z,150
2017-12-13T13:24:10.582Z,145
2017-12-13T13:25:10.891Z,145
2017-12-13T13:26:10.621Z,145
2017-12-13T13:27:10.906Z,145
2017-12-13T13:28:10.677Z,145
2017-12-13T13:29:10.437Z,145
2017-12-13T13:30:11.000Z,145
2017-12-13T13:31:10.991Z,145
2017-12-13T13:32:11.011Z,140
2017-12-13T13:33:10.532Z,140
2017-12-13T13:34:10.864Z,140
2017-12-13T13:35:10.841Z,140
2017-12-13T13:36:11.122Z,140
2017-12-13T13:37:10.883Z,140
2017-12-13T13:38:10.667Z,140
2017-12-13T13:39:10.922Z,140
2017-12-13T13:40:10.683Z,140
2017-12-13T13:41:10.961Z,140
2017-12-13T13:42:10.994Z,140
2017-12-13T13:43:10.760Z,140
2017-12-13T13:44:11.029Z,140
2017-12-13T13:45:11.150Z,140
2017-12-13T13:46:11.078Z,140
2017-12-13T13:47:10.841Z,135
2017-12-13T13:48:11.106Z,135
2017-12-13T13:49:11.174Z,130
2017-12-13T13:50:11.155Z,130
2017-12-13T13:51:11.433Z,130
2017-12-13T13:52:11.259Z,130
2017-12-13T13:53:10.969Z,130
2017-12-13T13:54:11.480Z,130
2017-12-13T13:55:11.268Z,130
2017-12-13T13:56:11.514Z,125
2017-12-13T13:57:11.078Z,125
2017-12-13T13:58:11.323Z,125
2017-12-13T13:59:11.321Z,125
2017-12-13T14:00:11.618Z,125
2017-12-13T14:01:11.130Z,125
2017-12-13T14:02:11.114Z,130
2017-12-13T14:03:11.431Z,130
2017-12-13T14:04:11.213Z,135
2017-12-13T14:05:11.724Z,135
2017-12-13T14:06:10.966Z,140
2017-12-13T14:07:11.566Z,145
2017-12-13T14:08:11.269Z,150
2017-12-13T14:09:11.281Z,150
2017-12-13T14:10:10.795Z,150
2017-12-13T14:11:11.531Z,155